sensor_id;sensor_type;location;lat;lon;timestamp;pressure;altitude;pressure_sealevel;temperature;humidity
55590;BME280;41452;42.780;23.116;2023-03-26T00:01:31;93861.34;;;7.99;95.66
55590;BME280;41452;42.780;23.116;2023-03-26T00:04:05;93888.88;;;8.14;95.34
55590;BME280;41452;42.780;23.116;2023-03-26T00:06:33;93877.94;;;8.17;95.19
55590;BME280;41452;42.780;23.116;2023-03-26T00:09:00;93868.84;;;8.08;95.43
55590;BME280;41452;42.780;23.116;2023-03-26T00:11:27;93862.94;;;8.12;95.80
55590;BME280;41452;42.780;23.116;2023-03-26T00:13:54;93864.63;;;8.18;95.31
55590;BME280;41452;42.780;23.116;2023-03-26T00:16:23;93857.63;;;8.19;94.66
55590;BME280;41452;42.780;23.116;2023-03-26T00:18:49;93854.75;;;8.21;94.20
55590;BME280;41452;42.780;23.116;2023-03-26T00:21:17;93855.34;;;8.23;93.84
55590;BME280;41452;42.780;23.116;2023-03-26T00:23:44;93859.31;;;8.25;93.41
55590;BME280;41452;42.780;23.116;2023-03-26T00:26:10;93869.78;;;8.25;93.90
55590;BME280;41452;42.780;23.116;2023-03-26T00:28:40;93820.84;;;7.90;93.96
55590;BME280;41452;42.780;23.116;2023-03-26T00:31:15;93857.50;;;8.14;93.67
55590;BME280;41452;42.780;23.116;2023-03-26T00:33:41;93829.72;;;7.89;93.49
55590;BME280;41452;42.780;23.116;2023-03-26T00:36:10;93869.09;;;8.18;94.14
55590;BME280;41452;42.780;23.116;2023-03-26T00:38:39;93869.53;;;8.15;94.43
55590;BME280;41452;42.780;23.116;2023-03-26T00:41:10;93870.56;;;8.14;94.70
55590;BME280;41452;42.780;23.116;2023-03-26T00:43:41;93875.81;;;8.14;95.04
55590;BME280;41452;42.780;23.116;2023-03-26T00:46:07;93874.53;;;8.16;95.20
55590;BME280;41452;42.780;23.116;2023-03-26T00:48:32;93878.19;;;8.15;95.58
55590;BME280;41452;42.780;23.116;2023-03-26T00:50:58;93873.75;;;8.16;95.46
55590;BME280;41452;42.780;23.116;2023-03-26T00:53:24;93879.66;;;8.23;94.98
55590;BME280;41452;42.780;23.116;2023-03-26T00:55:49;93879.66;;;8.23;94.54
55590;BME280;41452;42.780;23.116;2023-03-26T00:58:15;93758.06;;;7.43;94.00
55590;BME280;41452;42.780;23.116;2023-03-26T01:00:45;93876.38;;;8.16;94.89
55590;BME280;41452;42.780;23.116;2023-03-26T01:03:14;93877.47;;;8.08;95.72
55590;BME280;41452;42.780;23.116;2023-03-26T01:06:00;93882.34;;;8.05;95.92
55590;BME280;41452;42.780;23.116;2023-03-26T01:11:03;93873.38;;;7.89;97.27
55590;BME280;41452;42.780;23.116;2023-03-26T01:13:34;93893.88;;;8.04;97.24
55590;BME280;41452;42.780;23.116;2023-03-26T01:16:01;93886.69;;;7.99;97.06
55590;BME280;41452;42.780;23.116;2023-03-26T01:18:30;93832.75;;;7.74;97.22
55590;BME280;41452;42.780;23.116;2023-03-26T01:20:59;93894.09;;;8.14;96.97
55590;BME280;41452;42.780;23.116;2023-03-26T01:23:36;93886.72;;;8.11;97.08
55590;BME280;41452;42.780;23.116;2023-03-26T01:26:24;93898.44;;;8.20;96.61
55590;BME280;41452;42.780;23.116;2023-03-26T01:28:55;93879.75;;;8.05;97.71
55590;BME280;41452;42.780;23.116;2023-03-26T01:31:38;93895.78;;;8.08;98.24
55590;BME280;41452;42.780;23.116;2023-03-26T01:34:15;93892.59;;;8.06;97.95
55590;BME280;41452;42.780;23.116;2023-03-26T01:36:46;93899.66;;;8.06;98.64
55590;BME280;41452;42.780;23.116;2023-03-26T01:39:49;93894.88;;;8.03;98.20
55590;BME280;41452;42.780;23.116;2023-03-26T01:45:04;93887.84;;;8.03;97.82
55590;BME280;41452;42.780;23.116;2023-03-26T01:47:32;93845.59;;;7.76;97.33
55590;BME280;41452;42.780;23.116;2023-03-26T01:49:58;93878.72;;;8.06;96.70
55590;BME280;41452;42.780;23.116;2023-03-26T01:52:24;93852.44;;;7.77;96.12
55590;BME280;41452;42.780;23.116;2023-03-26T01:54:52;93880.41;;;7.88;97.74
55590;BME280;41452;42.780;23.116;2023-03-26T02:00:39;93898.00;;;7.69;99.64
55590;BME280;41452;42.780;23.116;2023-03-26T02:03:31;93904.88;;;7.64;99.79
55590;BME280;41452;42.780;23.116;2023-03-26T02:08:51;93911.03;;;7.39;100.00
55590;BME280;41452;42.780;23.116;2023-03-26T02:11:18;93910.88;;;7.52;100.00
55590;BME280;41452;42.780;23.116;2023-03-26T02:13:44;93907.13;;;7.48;100.00
55590;BME280;41452;42.780;23.116;2023-03-26T02:16:14;93909.47;;;7.38;100.00
55590;BME280;41452;42.780;23.116;2023-03-26T02:18:41;93895.97;;;7.41;100.00
55590;BME280;41452;42.780;23.116;2023-03-26T02:21:15;93909.16;;;7.46;100.00
55590;BME280;41452;42.780;23.116;2023-03-26T02:23:45;93917.22;;;7.45;100.00
55590;BME280;41452;42.780;23.116;2023-03-26T02:26:11;93915.81;;;7.42;100.00
55590;BME280;41452;42.780;23.116;2023-03-26T02:28:37;93917.44;;;7.43;100.00
55590;BME280;41452;42.780;23.116;2023-03-26T02:31:03;93873.59;;;7.15;100.00
55590;BME280;41452;42.780;23.116;2023-03-26T02:33:29;93920.25;;;7.41;100.00
55590;BME280;41452;42.780;23.116;2023-03-26T02:35:57;93904.81;;;7.40;100.00
55590;BME280;41452;42.780;23.116;2023-03-26T02:38:31;93918.16;;;7.32;100.00
55590;BME280;41452;42.780;23.116;2023-03-26T02:41:01;93911.34;;;7.31;100.00
55590;BME280;41452;42.780;23.116;2023-03-26T02:43:26;93924.34;;;7.19;100.00
55590;BME280;41452;42.780;23.116;2023-03-26T02:45:52;93932.41;;;7.17;100.00
55590;BME280;41452;42.780;23.116;2023-03-26T02:48:18;93939.38;;;7.23;100.00
55590;BME280;41452;42.780;23.116;2023-03-26T02:50:44;93939.00;;;7.20;100.00
55590;BME280;41452;42.780;23.116;2023-03-26T02:53:10;93918.72;;;7.03;100.00
55590;BME280;41452;42.780;23.116;2023-03-26T02:55:38;93932.94;;;7.08;100.00
55590;BME280;41452;42.780;23.116;2023-03-26T02:58:03;93914.28;;;6.85;100.00
55590;BME280;41452;42.780;23.116;2023-03-26T03:00:29;93944.53;;;6.93;100.00
55590;BME280;41452;42.780;23.116;2023-03-26T03:02:54;93945.38;;;6.87;100.00
55590;BME280;41452;42.780;23.116;2023-03-26T03:05:22;93948.81;;;6.88;100.00
55590;BME280;41452;42.780;23.116;2023-03-26T03:07:51;93961.50;;;6.84;100.00
55590;BME280;41452;42.780;23.116;2023-03-26T03:10:16;93956.13;;;6.79;100.00
55590;BME280;41452;42.780;23.116;2023-03-26T03:12:46;93962.72;;;6.81;100.00
55590;BME280;41452;42.780;23.116;2023-03-26T03:15:12;93967.56;;;6.78;100.00
55590;BME280;41452;42.780;23.116;2023-03-26T03:17:38;93964.75;;;6.79;100.00
55590;BME280;41452;42.780;23.116;2023-03-26T03:20:05;93901.47;;;6.40;100.00
55590;BME280;41452;42.780;23.116;2023-03-26T03:22:33;93970.47;;;6.88;100.00
55590;BME280;41452;42.780;23.116;2023-03-26T03:24:58;93973.31;;;6.87;100.00
55590;BME280;41452;42.780;23.116;2023-03-26T03:27:24;93965.47;;;6.87;100.00
55590;BME280;41452;42.780;23.116;2023-03-26T03:29:51;93961.50;;;6.84;100.00
55590;BME280;41452;42.780;23.116;2023-03-26T03:32:22;93939.28;;;6.75;100.00
55590;BME280;41452;42.780;23.116;2023-03-26T03:34:48;93956.75;;;6.93;100.00
55590;BME280;41452;42.780;23.116;2023-03-26T03:37:16;93950.53;;;6.94;100.00
55590;BME280;41452;42.780;23.116;2023-03-26T03:39:42;93902.53;;;6.58;100.00
55590;BME280;41452;42.780;23.116;2023-03-26T03:42:08;93962.22;;;6.91;100.00
55590;BME280;41452;42.780;23.116;2023-03-26T03:44:33;93958.22;;;6.89;100.00
55590;BME280;41452;42.780;23.116;2023-03-26T03:46:58;93928.06;;;6.74;100.00
55590;BME280;41452;42.780;23.116;2023-03-26T03:49:24;93964.03;;;6.91;100.00
55590;BME280;41452;42.780;23.116;2023-03-26T03:51:49;93871.63;;;6.36;100.00
55590;BME280;41452;42.780;23.116;2023-03-26T03:54:15;93949.53;;;6.95;100.00
55590;BME280;41452;42.780;23.116;2023-03-26T03:56:40;93956.75;;;6.93;100.00
55590;BME280;41452;42.780;23.116;2023-03-26T03:59:05;93896.00;;;6.49;100.00
55590;BME280;41452;42.780;23.116;2023-03-26T04:01:33;93962.00;;;6.93;100.00
55590;BME280;41452;42.780;23.116;2023-03-26T04:03:59;93971.16;;;7.02;100.00
55590;BME280;41452;42.780;23.116;2023-03-26T04:06:24;93981.59;;;7.02;100.00
55590;BME280;41452;42.780;23.116;2023-03-26T04:08:54;93977.16;;;7.02;100.00
55590;BME280;41452;42.780;23.116;2023-03-26T04:11:20;93977.66;;;6.93;100.00
55590;BME280;41452;42.780;23.116;2023-03-26T04:13:46;93961.97;;;6.74;100.00
55590;BME280;41452;42.780;23.116;2023-03-26T04:16:11;93995.34;;;6.91;100.00
55590;BME280;41452;42.780;23.116;2023-03-26T04:18:36;93999.94;;;6.95;100.00
55590;BME280;41452;42.780;23.116;2023-03-26T04:21:03;94003.53;;;6.94;100.00
55590;BME280;41452;42.780;23.116;2023-03-26T04:23:30;94015.97;;;6.99;100.00
55590;BME280;41452;42.780;23.116;2023-03-26T04:25:57;94024.16;;;7.02;100.00
55590;BME280;41452;42.780;23.116;2023-03-26T04:28:30;94027.41;;;6.98;100.00
55590;BME280;41452;42.780;23.116;2023-03-26T04:30:58;94034.88;;;6.94;100.00
55590;BME280;41452;42.780;23.116;2023-03-26T04:33:27;94029.28;;;6.91;100.00
55590;BME280;41452;42.780;23.116;2023-03-26T04:35:53;94041.66;;;7.02;100.00
55590;BME280;41452;42.780;23.116;2023-03-26T04:38:21;94046.88;;;7.02;100.00
55590;BME280;41452;42.780;23.116;2023-03-26T04:40:46;94042.59;;;7.08;100.00
55590;BME280;41452;42.780;23.116;2023-03-26T04:43:12;94042.03;;;7.06;100.00
55590;BME280;41452;42.780;23.116;2023-03-26T04:45:38;93976.16;;;6.60;100.00
55590;BME280;41452;42.780;23.116;2023-03-26T04:48:04;94051.22;;;7.08;100.00
55590;BME280;41452;42.780;23.116;2023-03-26T04:50:31;94029.22;;;6.97;100.00
55590;BME280;41452;42.780;23.116;2023-03-26T04:52:57;94043.97;;;7.10;100.00
55590;BME280;41452;42.780;23.116;2023-03-26T04:55:26;94052.00;;;7.09;100.00
55590;BME280;41452;42.780;23.116;2023-03-26T04:57:56;94054.41;;;7.10;100.00
55590;BME280;41452;42.780;23.116;2023-03-26T05:00:24;94052.00;;;7.09;100.00
55590;BME280;41452;42.780;23.116;2023-03-26T05:02:50;94029.44;;;6.96;100.00
55590;BME280;41452;42.780;23.116;2023-03-26T05:05:18;94063.84;;;7.11;100.00
55590;BME280;41452;42.780;23.116;2023-03-26T05:07:44;94077.91;;;7.10;100.00
55590;BME280;41452;42.780;23.116;2023-03-26T05:10:13;94066.88;;;7.08;100.00
55590;BME280;41452;42.780;23.116;2023-03-26T05:12:40;94067.69;;;7.09;100.00
55590;BME280;41452;42.780;23.116;2023-03-26T05:15:06;94070.59;;;7.19;100.00
55590;BME280;41452;42.780;23.116;2023-03-26T05:17:32;94035.41;;;7.03;100.00
55590;BME280;41452;42.780;23.116;2023-03-26T05:19:59;94079.69;;;7.35;100.00
55590;BME280;41452;42.780;23.116;2023-03-26T05:22:25;94075.50;;;7.34;100.00
55590;BME280;41452;42.780;23.116;2023-03-26T05:24:50;94077.22;;;7.40;100.00
55590;BME280;41452;42.780;23.116;2023-03-26T05:27:16;94079.47;;;7.36;100.00
55590;BME280;41452;42.780;23.116;2023-03-26T05:29:44;94074.19;;;7.43;99.33
55590;BME280;41452;42.780;23.116;2023-03-26T05:32:10;94061.13;;;7.43;98.55
55590;BME280;41452;42.780;23.116;2023-03-26T05:34:37;94076.66;;;7.56;98.68
55590;BME280;41452;42.780;23.116;2023-03-26T05:37:03;94074.41;;;7.60;97.09
55590;BME280;41452;42.780;23.116;2023-03-26T05:39:29;94082.59;;;7.64;97.32
55590;BME280;41452;42.780;23.116;2023-03-26T05:41:54;94081.22;;;7.79;97.66
55590;BME280;41452;42.780;23.116;2023-03-26T05:44:20;94077.47;;;7.75;96.04
55590;BME280;41452;42.780;23.116;2023-03-26T05:46:45;94077.59;;;7.80;95.78
55590;BME280;41452;42.780;23.116;2023-03-26T05:49:11;94076.56;;;7.81;94.54
55590;BME280;41452;42.780;23.116;2023-03-26T05:51:36;94041.50;;;7.71;94.66
55590;BME280;41452;42.780;23.116;2023-03-26T05:54:01;94083.47;;;7.94;94.93
55590;BME280;41452;42.780;23.116;2023-03-26T05:56:27;94054.88;;;7.81;94.19
55590;BME280;41452;42.780;23.116;2023-03-26T05:58:55;94077.72;;;8.04;94.41
55590;BME280;41452;42.780;23.116;2023-03-26T06:01:21;94085.91;;;8.08;91.96
55590;BME280;41452;42.780;23.116;2023-03-26T06:03:47;94081.25;;;8.10;91.91
55590;BME280;41452;42.780;23.116;2023-03-26T06:06:16;94084.09;;;8.08;91.68
55590;BME280;41452;42.780;23.116;2023-03-26T06:08:43;94083.88;;;8.10;92.96
55590;BME280;41452;42.780;23.116;2023-03-26T06:11:11;94041.78;;;7.81;91.09
55590;BME280;41452;42.780;23.116;2023-03-26T06:13:37;94065.25;;;8.18;91.69
55590;BME280;41452;42.780;23.116;2023-03-26T06:16:04;94064.50;;;8.29;91.61
55590;BME280;41452;42.780;23.116;2023-03-26T06:18:30;94059.28;;;8.29;89.19
55590;BME280;41452;42.780;23.116;2023-03-26T06:20:55;94069.44;;;8.37;90.56
55590;BME280;41452;42.780;23.116;2023-03-26T06:23:21;94080.75;;;8.50;87.43
55590;BME280;41452;42.780;23.116;2023-03-26T06:25:47;94067.81;;;8.55;87.44
55590;BME280;41452;42.780;23.116;2023-03-26T06:28:14;93930.66;;;7.60;84.72
55590;BME280;41452;42.780;23.116;2023-03-26T06:30:40;94071.59;;;8.41;85.51
55590;BME280;41452;42.780;23.116;2023-03-26T06:33:05;94073.66;;;8.38;84.75
55590;BME280;41452;42.780;23.116;2023-03-26T06:35:31;94076.13;;;8.33;86.15
55590;BME280;41452;42.780;23.116;2023-03-26T06:37:57;94082.25;;;8.27;86.78
55590;BME280;41452;42.780;23.116;2023-03-26T06:40:22;94082.59;;;8.31;86.17
55590;BME280;41452;42.780;23.116;2023-03-26T06:42:48;94061.31;;;8.27;86.93
55590;BME280;41452;42.780;23.116;2023-03-26T06:45:13;94052.28;;;8.11;86.21
55590;BME280;41452;42.780;23.116;2023-03-26T06:47:39;93939.94;;;7.26;86.66
55590;BME280;41452;42.780;23.116;2023-03-26T06:50:05;94105.84;;;8.39;86.78
55590;BME280;41452;42.780;23.116;2023-03-26T06:52:30;94107.38;;;8.47;86.89
55590;BME280;41452;42.780;23.116;2023-03-26T06:54:56;94105.59;;;8.59;86.86
55590;BME280;41452;42.780;23.116;2023-03-26T06:57:21;94102.09;;;8.65;85.10
55590;BME280;41452;42.780;23.116;2023-03-26T06:59:46;94104.63;;;8.84;85.43
55590;BME280;41452;42.780;23.116;2023-03-26T07:02:12;94066.72;;;8.74;85.62
55590;BME280;41452;42.780;23.116;2023-03-26T07:04:37;94088.25;;;9.00;82.99
55590;BME280;41452;42.780;23.116;2023-03-26T07:07:03;94097.16;;;9.11;83.71
55590;BME280;41452;42.780;23.116;2023-03-26T07:09:28;94089.84;;;9.13;83.93
55590;BME280;41452;42.780;23.116;2023-03-26T07:11:57;94093.97;;;9.21;81.95
55590;BME280;41452;42.780;23.116;2023-03-26T07:14:23;94082.59;;;9.15;80.71
55590;BME280;41452;42.780;23.116;2023-03-26T07:16:50;94087.56;;;9.17;80.88
55590;BME280;41452;42.780;23.116;2023-03-26T07:19:15;94087.34;;;9.18;81.56
55590;BME280;41452;42.780;23.116;2023-03-26T07:21:41;94082.56;;;9.39;79.56
55590;BME280;41452;42.780;23.116;2023-03-26T07:24:10;94034.84;;;9.25;79.59
55590;BME280;41452;42.780;23.116;2023-03-26T07:27:02;94077.69;;;9.54;77.06
55590;BME280;41452;42.780;23.116;2023-03-26T07:29:44;94084.19;;;9.28;75.51
55590;BME280;41452;42.780;23.116;2023-03-26T07:39:55;94085.28;;;9.79;74.54
55590;BME280;41452;42.780;23.116;2023-03-26T07:42:37;94074.47;;;9.64;75.83
55590;BME280;41452;42.780;23.116;2023-03-26T07:45:16;94087.22;;;9.72;73.54
55590;BME280;41452;42.780;23.116;2023-03-26T07:47:43;94094.25;;;9.83;74.07
55590;BME280;41452;42.780;23.116;2023-03-26T07:50:19;94089.34;;;9.87;72.51
55590;BME280;41452;42.780;23.116;2023-03-26T07:52:45;94077.63;;;9.89;73.14
55590;BME280;41452;42.780;23.116;2023-03-26T07:55:12;94084.75;;;10.06;74.49
55590;BME280;41452;42.780;23.116;2023-03-26T07:58:03;94083.59;;;10.02;72.38
55590;BME280;41452;42.780;23.116;2023-03-26T08:00:58;94081.56;;;10.04;73.24
55590;BME280;41452;42.780;23.116;2023-03-26T08:06:29;94079.75;;;10.33;68.69
55590;BME280;41452;42.780;23.116;2023-03-26T08:19:39;94084.38;;;10.72;68.95
55590;BME280;41452;42.780;23.116;2023-03-26T08:22:30;94078.56;;;10.87;67.28
55590;BME280;41452;42.780;23.116;2023-03-26T08:30:35;94084.97;;;11.08;65.08
55590;BME280;41452;42.780;23.116;2023-03-26T08:35:35;94088.31;;;11.20;66.74
55590;BME280;41452;42.780;23.116;2023-03-26T08:38:09;94091.25;;;11.23;63.22
55590;BME280;41452;42.780;23.116;2023-03-26T09:01:19;94101.50;;;11.42;63.20
55590;BME280;41452;42.780;23.116;2023-03-26T09:07:08;94081.16;;;11.54;62.13
55590;BME280;41452;42.780;23.116;2023-03-26T09:31:14;94047.00;;;12.48;55.48
55590;BME280;41452;42.780;23.116;2023-03-26T09:34:31;94040.59;;;12.66;53.09
55590;BME280;41452;42.780;23.116;2023-03-26T09:37:06;94048.41;;;12.55;53.43
55590;BME280;41452;42.780;23.116;2023-03-26T09:42:36;94034.63;;;12.76;54.10
55590;BME280;41452;42.780;23.116;2023-03-26T09:53:56;94030.16;;;12.76;52.13
55590;BME280;41452;42.780;23.116;2023-03-26T10:09:57;94005.16;;;13.21;46.30
55590;BME280;41452;42.780;23.116;2023-03-26T10:12:38;93996.66;;;13.14;47.06
55590;BME280;41452;42.780;23.116;2023-03-26T10:15:30;93993.78;;;13.16;46.73
55590;BME280;41452;42.780;23.116;2023-03-26T10:20:56;93987.31;;;13.34;42.10
55590;BME280;41452;42.780;23.116;2023-03-26T10:23:45;93983.16;;;13.43;45.41
55590;BME280;41452;42.780;23.116;2023-03-26T10:31:38;93972.19;;;13.77;47.47
55590;BME280;41452;42.780;23.116;2023-03-26T10:34:30;93970.41;;;13.93;49.18
55590;BME280;41452;42.780;23.116;2023-03-26T10:37:20;93969.91;;;13.96;43.42
55590;BME280;41452;42.780;23.116;2023-03-26T10:53:52;93942.66;;;13.80;44.74
55590;BME280;41452;42.780;23.116;2023-03-26T10:56:28;93944.28;;;13.96;43.14
55590;BME280;41452;42.780;23.116;2023-03-26T10:59:07;93949.56;;;14.01;43.99
55590;BME280;41452;42.780;23.116;2023-03-26T11:04:42;93941.16;;;14.15;44.70
55590;BME280;41452;42.780;23.116;2023-03-26T11:09:53;93941.19;;;14.25;42.78
55590;BME280;41452;42.780;23.116;2023-03-26T11:12:34;93933.78;;;14.27;42.08
55590;BME280;41452;42.780;23.116;2023-03-26T11:15:19;93931.69;;;14.39;43.20
55590;BME280;41452;42.780;23.116;2023-03-26T11:20:53;93915.31;;;14.27;39.54
55590;BME280;41452;42.780;23.116;2023-03-26T11:32:15;93897.09;;;14.46;38.59
55590;BME280;41452;42.780;23.116;2023-03-26T11:37:31;93897.34;;;14.65;39.56
55590;BME280;41452;42.780;23.116;2023-03-26T11:39:58;93891.00;;;14.71;38.84
55590;BME280;41452;42.780;23.116;2023-03-26T11:42:26;93867.75;;;14.63;39.86
55590;BME280;41452;42.780;23.116;2023-03-26T11:44:59;93888.84;;;14.94;40.84
55590;BME280;41452;42.780;23.116;2023-03-26T11:47:34;93885.91;;;15.11;39.65
55590;BME280;41452;42.780;23.116;2023-03-26T11:50:03;93883.53;;;14.99;37.84
55590;BME280;41452;42.780;23.116;2023-03-26T11:52:31;93876.69;;;14.98;36.03
55590;BME280;41452;42.780;23.116;2023-03-26T11:54:56;93862.13;;;14.95;35.85
55590;BME280;41452;42.780;23.116;2023-03-26T11:57:27;93861.31;;;15.05;36.99
55590;BME280;41452;42.780;23.116;2023-03-26T11:59:58;93852.13;;;14.87;36.53
55590;BME280;41452;42.780;23.116;2023-03-26T12:02:30;93860.00;;;15.02;36.72
55590;BME280;41452;42.780;23.116;2023-03-26T12:05:22;93788.19;;;14.75;35.54
55590;BME280;41452;42.780;23.116;2023-03-26T12:07:57;93851.75;;;15.19;35.61
55590;BME280;41452;42.780;23.116;2023-03-26T12:10:27;93847.00;;;15.16;34.24
55590;BME280;41452;42.780;23.116;2023-03-26T12:12:55;93851.22;;;15.23;33.56
55590;BME280;41452;42.780;23.116;2023-03-26T12:15:23;93817.69;;;15.02;32.77
55590;BME280;41452;42.780;23.116;2023-03-26T12:17:51;93839.06;;;15.16;31.16
55590;BME280;41452;42.780;23.116;2023-03-26T12:22:53;93827.56;;;15.42;31.06
55590;BME280;41452;42.780;23.116;2023-03-26T12:25:25;93829.16;;;15.43;30.88
55590;BME280;41452;42.780;23.116;2023-03-26T12:27:57;93826.31;;;15.29;30.97
55590;BME280;41452;42.780;23.116;2023-03-26T12:33:12;93809.09;;;15.31;29.90
55590;BME280;41452;42.780;23.116;2023-03-26T12:35:40;93810.13;;;15.40;32.24
55590;BME280;41452;42.780;23.116;2023-03-26T12:38:30;93781.38;;;15.24;30.10
55590;BME280;41452;42.780;23.116;2023-03-26T12:41:09;93799.75;;;15.49;30.53
55590;BME280;41452;42.780;23.116;2023-03-26T12:43:49;93799.75;;;15.49;30.80
55590;BME280;41452;42.780;23.116;2023-03-26T12:46:33;93782.53;;;15.52;31.24
55590;BME280;41452;42.780;23.116;2023-03-26T12:49:02;93727.94;;;15.21;31.02
55590;BME280;41452;42.780;23.116;2023-03-26T12:51:38;93793.06;;;15.62;30.00
55590;BME280;41452;42.780;23.116;2023-03-26T12:59:40;93790.31;;;15.33;27.23
55590;BME280;41452;42.780;23.116;2023-03-26T13:10:50;93764.69;;;15.68;31.96
55590;BME280;41452;42.780;23.116;2023-03-26T13:16:08;93774.28;;;15.58;30.63
55590;BME280;41452;42.780;23.116;2023-03-26T13:18:57;93734.84;;;15.23;32.18
55590;BME280;41452;42.780;23.116;2023-03-26T13:35:20;93764.41;;;15.69;30.76
55590;BME280;41452;42.780;23.116;2023-03-26T13:40:29;93751.41;;;15.78;30.78
55590;BME280;41452;42.780;23.116;2023-03-26T13:48:58;93745.16;;;15.64;31.22
55590;BME280;41452;42.780;23.116;2023-03-26T13:51:34;93686.09;;;15.34;32.54
55590;BME280;41452;42.780;23.116;2023-03-26T13:54:19;93739.75;;;15.74;33.65
55590;BME280;41452;42.780;23.116;2023-03-26T13:57:17;93732.88;;;15.78;34.08
55590;BME280;41452;42.780;23.116;2023-03-26T14:00:04;93740.06;;;15.77;34.38
55590;BME280;41452;42.780;23.116;2023-03-26T14:02:39;93741.63;;;15.73;33.32
55590;BME280;41452;42.780;23.116;2023-03-26T14:10:33;93725.50;;;15.70;34.80
55590;BME280;41452;42.780;23.116;2023-03-26T14:13:12;93726.66;;;15.58;34.74
55590;BME280;41452;42.780;23.116;2023-03-26T14:15:46;93718.44;;;15.60;33.90
55590;BME280;41452;42.780;23.116;2023-03-26T14:18:34;93722.41;;;15.57;34.20
55590;BME280;41452;42.780;23.116;2023-03-26T14:32:30;93716.09;;;15.53;32.17
55590;BME280;41452;42.780;23.116;2023-03-26T14:37:54;93710.31;;;15.51;33.75
55590;BME280;41452;42.780;23.116;2023-03-26T14:43:21;93710.34;;;15.46;34.40
55590;BME280;41452;42.780;23.116;2023-03-26T14:46:05;93625.03;;;14.91;34.61
55590;BME280;41452;42.780;23.116;2023-03-26T14:51:18;93712.28;;;15.30;35.01
55590;BME280;41452;42.780;23.116;2023-03-26T14:53:49;93708.91;;;15.25;35.23
55590;BME280;41452;42.780;23.116;2023-03-26T15:35:34;93719.38;;;14.90;36.76
55590;BME280;41452;42.780;23.116;2023-03-26T15:51:57;93715.81;;;14.55;36.19
55590;BME280;41452;42.780;23.116;2023-03-26T15:59:57;93703.66;;;14.59;36.66
55590;BME280;41452;42.780;23.116;2023-03-26T16:04:55;93700.22;;;14.54;37.37
55590;BME280;41452;42.780;23.116;2023-03-26T16:15:52;93708.28;;;14.13;37.83
55590;BME280;41452;42.780;23.116;2023-03-26T16:18:36;93707.50;;;14.07;38.24
55590;BME280;41452;42.780;23.116;2023-03-26T16:26:46;93705.66;;;14.02;38.77
55590;BME280;41452;42.780;23.116;2023-03-26T16:29:21;93708.81;;;14.04;38.90
55590;BME280;41452;42.780;23.116;2023-03-26T16:32:16;93710.94;;;14.02;39.42
55590;BME280;41452;42.780;23.116;2023-03-26T16:34:57;93718.59;;;14.04;39.68
55590;BME280;41452;42.780;23.116;2023-03-26T16:58:52;93675.28;;;13.12;43.09
55590;BME280;41452;42.780;23.116;2023-03-26T17:04:17;93704.56;;;13.06;44.11
55590;BME280;41452;42.780;23.116;2023-03-26T17:18:02;93726.44;;;12.38;46.13
55590;BME280;41452;42.780;23.116;2023-03-26T17:20:41;93722.72;;;12.29;47.12
55590;BME280;41452;42.780;23.116;2023-03-26T17:23:24;93726.06;;;12.14;47.80
55590;BME280;41452;42.780;23.116;2023-03-26T17:31:22;93712.53;;;11.63;49.57
55590;BME280;41452;42.780;23.116;2023-03-26T17:33:51;93731.75;;;11.63;50.00
55590;BME280;41452;42.780;23.116;2023-03-26T17:41:50;93728.09;;;11.32;51.04
55590;BME280;41452;42.780;23.116;2023-03-26T17:44:35;93729.19;;;11.14;51.56
55590;BME280;41452;42.780;23.116;2023-03-26T17:47:03;93733.09;;;11.06;52.08
55590;BME280;41452;42.780;23.116;2023-03-26T17:49:31;93711.50;;;10.77;52.71
55590;BME280;41452;42.780;23.116;2023-03-26T17:52:09;93726.69;;;10.97;52.28
55590;BME280;41452;42.780;23.116;2023-03-26T17:54:43;93719.22;;;10.89;52.17
55590;BME280;41452;42.780;23.116;2023-03-26T17:57:39;93721.34;;;10.64;53.54
55590;BME280;41452;42.780;23.116;2023-03-26T18:00:06;93718.47;;;10.44;54.72
55590;BME280;41452;42.780;23.116;2023-03-26T18:02:37;93673.03;;;9.99;54.81
55590;BME280;41452;42.780;23.116;2023-03-26T18:05:09;93668.00;;;9.76;55.41
55590;BME280;41452;42.780;23.116;2023-03-26T18:16:05;93727.56;;;9.80;55.86
55590;BME280;41452;42.780;23.116;2023-03-26T18:18:48;93697.06;;;9.57;56.63
55590;BME280;41452;42.780;23.116;2023-03-26T18:21:37;93718.38;;;9.61;57.61
55590;BME280;41452;42.780;23.116;2023-03-26T18:24:06;93716.78;;;9.60;57.45
55590;BME280;41452;42.780;23.116;2023-03-26T18:26:42;93722.19;;;9.53;57.86
55590;BME280;41452;42.780;23.116;2023-03-26T18:29:28;93715.34;;;9.52;57.76
55590;BME280;41452;42.780;23.116;2023-03-26T18:31:59;93717.41;;;9.50;57.98
55590;BME280;41452;42.780;23.116;2023-03-26T18:34:29;93701.47;;;9.35;57.98
55590;BME280;41452;42.780;23.116;2023-03-26T18:37:11;93709.34;;;9.35;58.17
55590;BME280;41452;42.780;23.116;2023-03-26T18:42:23;93644.81;;;8.83;58.94
55590;BME280;41452;42.780;23.116;2023-03-26T18:44:50;93685.97;;;8.99;59.56
55590;BME280;41452;42.780;23.116;2023-03-26T18:47:16;93698.41;;;9.09;59.57
55590;BME280;41452;42.780;23.116;2023-03-26T18:49:43;93708.16;;;8.97;59.63
55590;BME280;41452;42.780;23.116;2023-03-26T18:52:16;93676.91;;;8.61;60.71
55590;BME280;41452;42.780;23.116;2023-03-26T18:54:43;93687.13;;;8.63;61.74
55590;BME280;41452;42.780;23.116;2023-03-26T18:57:19;93686.03;;;8.59;61.48
55590;BME280;41452;42.780;23.116;2023-03-26T18:59:48;93686.06;;;8.47;62.01
55590;BME280;41452;42.780;23.116;2023-03-26T19:02:15;93677.28;;;8.41;62.58
55590;BME280;41452;42.780;23.116;2023-03-26T19:04:43;93678.56;;;8.38;62.41
55590;BME280;41452;42.780;23.116;2023-03-26T19:07:15;93671.28;;;8.29;62.96
55590;BME280;41452;42.780;23.116;2023-03-26T19:09:43;93663.13;;;8.13;63.22
55590;BME280;41452;42.780;23.116;2023-03-26T19:12:29;93653.28;;;7.92;63.85